AirNav   TITAN Aviation Fuels
 
 1083 users online  

88ND Goodman Strip Airport
Milton, North Dakota, USA

GOING TO MILTON?


FAA INFORMATION EFFECTIVE 01 DECEMBER 2022

Location

FAA Identifier: 88ND
Lat/Long: 48-42-31.9770N 097-59-38.3630W
48-42.532950N 097-59.639383W
48.7088825,-97.9939897
(estimated)
Elevation: 1560 ft. / 475 m (estimated)
Variation: 07E (1985)
From city: 7 miles NE of MILTON, ND
Time zone: UTC -6 (UTC -5 during Daylight Saving Time)
Zip code: 58260

Airport Operations

Airport use: Private use. Permission required prior to landing
Activation date: 10/1980
Control tower: no
ARTCC: MINNEAPOLIS CENTER
FSS: GRAND FORKS FLIGHT SERVICE STATION
Attendance: UNATNDD
Wind indicator: yes
Segmented circle: no

Airport Communications

WX AWOS-3PT at 96D (14 nm N): 118.175 (701-549-3402)
WX AWOS-3 at 2C8 (15 nm E): 118.275 (701-265-8050)
WX AWOS-3 at D55 (16 nm W): 118.225 (701-256-2121)

Airport Services

Runway Information

Runway 17/35

Dimensions: 2000 x 50 ft. / 610 x 15 m
Surface: turf
RUNWAY 17  RUNWAY 35
Traffic pattern: leftleft
Obstructions: trees, 1000 ft. from runwaypoles, 200 ft. from runway
TREES AT 250'; FENCE AT 10'.

Airport Ownership and Management from official FAA records

Ownership: Privately-owned
Owner: BERNIE L. GOODMAN
8963 123RD AVENUE NE
MILTON, ND 58260-9507
Phone 701-496-3245
Manager: BERNIE L. GOODMAN
8963 123RD AVENUE NE
MILTON, ND 58260-9507
Phone 701-496-3245

Airport Operational Statistics

Aircraft based on the field: 1
Single engine airplanes: 1
    

Additional Remarks

FOR CD CTC MINNEAPOLIS ARTCC AT 651-463-5588.

Instrument Procedures

There are no published instrument procedures at 88ND.

Some nearby airports with instrument procedures:

96D - Walhalla Municipal Airport (14 nm N)
2C8 - Cavalier Municipal Airport (15 nm E)
D55 - Robertson Field Airport (16 nm W)
KGAF - Hutson Field Airport (31 nm SE)
KPMB - Pembina Municipal Airport (33 nm NE)
 
Loc | Ops | Rwys | IFR | FBO | Links
Com | Nav | Svcs | Stats | Notes

Bismarck Aero Center
AirBoss

 
Area around 88ND (Goodman Strip Airport)
 
Road maps at: MapQuest Bing Google
 
Aerial photo
No photo
 
Sectional chart

 
Airport distance calculator
Flying to Goodman Strip Airport? Find the distance to fly.

From to 88ND

Sunrise and sunset
Times for 03-Dec-2022
 Local
(UTC-6)
 Zulu
(UTC)
Morning civil twilight07:3113:31
Sunrise08:0714:07
Sunset16:3722:37
Evening civil twilight17:1323:13

Current date and time
Zulu (UTC)  04-Dec-2022 01:12:05
Local (UTC-6)  03-Dec-2022 19:12:05
 
METAR
K96D 
14nm N 
040055Z AUTO 24008G13KT 10SM SCT120 M14/M19 A3009 RMK AO2
K2C8 
15nm E 
040055Z AUTO 00000KT 10SM CLR M15/M18 A3012 RMK AO2
KD55 
16nm W 
040055Z AUTO 22009KT 10SM CLR M19/M19 A3005 RMK AO2
TAF
NOTAMs
Click for the latest NOTAMs
NOTAMs are issued by the DoD/FAA and will open in a separate window not controlled by AirNav.

 

 
 

Would you like to see your business listed on this page?

 If your business provides an interesting product or service to pilots, flight crews, aircraft, or users of the Goodman Strip Airport, you should consider listing it here.  To start the listing process, click on the button below
 
Add a business
 

Other Pages about Goodman Strip Airport

Update a link
 
Copyright © AirNav, LLC. All rights reserved. Privacy Policy  Contact